Time;durP1;ratioP1;P1;durP2;ratioP2;P2;SDS_P1;SDS_P2;PMS_P1;PMS_P2;Temp;Humidity;BMP_temperature;BMP_pressure;BME280_temperature;BME280_humidity;BME280_pressure;Samples;Min_cycle;Max_cycle;Signal;HPM_P1;HPM_P2
2023/04/28 00:00:42;;;;;;;;;5.67;5.67;;;;;16.41;85.82;100737.38;5101489;27;45924;-74
2023/04/28 00:03:08;;;;;;;;;4.33;4.33;;;;;16.10;85.59;100687.38;5097725;27;46330;-73
2023/04/28 00:05:33;;;;;;;;;8.00;5.00;;;;;16.36;85.75;100735.25;5104615;27;45498;-73
2023/04/28 00:07:58;;;;;;;;;4.67;4.67;;;;;16.64;85.69;100781.16;5108109;27;45721;-75
2023/04/28 00:10:24;;;;;;;;;5.00;5.00;;;;;16.28;85.61;100710.38;5082464;27;45457;-74
2023/04/28 00:12:49;;;;;;;;;9.67;9.67;;;;;16.45;85.44;100740.56;5097662;27;47405;-74
2023/04/28 00:15:15;;;;;;;;;4.00;4.00;;;;;16.53;85.17;100754.72;5099366;27;46429;-73
2023/04/28 00:17:40;;;;;;;;;4.67;4.67;;;;;16.59;85.26;100750.47;5102592;27;45498;-73
2023/04/28 00:20:06;;;;;;;;;6.00;6.00;;;;;16.75;85.51;100782.56;5098862;27;46347;-73
2023/04/28 00:22:31;;;;;;;;;4.67;4.67;;;;;16.74;85.90;100797.00;5080726;27;48349;-72
2023/04/28 00:24:57;;;;;;;;;6.00;6.00;;;;;16.68;86.01;100771.72;5097581;27;45349;-74
2023/04/28 00:27:22;;;;;;;;;4.33;4.33;;;;;16.74;86.52;100791.63;5113970;27;45315;-74
2023/04/28 00:29:47;;;;;;;;;3.33;3.33;;;;;16.73;86.55;100796.16;5099390;27;45650;-73
2023/04/28 00:32:13;;;;;;;;;3.67;3.67;;;;;16.68;86.62;100777.09;5099259;27;48765;-74
2023/04/28 00:34:38;;;;;;;;;7.00;7.00;;;;;16.63;86.83;100763.38;5115349;27;45450;-74
2023/04/28 00:37:03;;;;;;;;;9.33;7.33;;;;;16.76;87.05;100794.13;5112026;27;45499;-73
2023/04/28 00:39:29;;;;;;;;;4.00;4.00;;;;;16.70;87.03;100777.75;5100003;27;45698;-75
2023/04/28 00:41:54;;;;;;;;;4.00;4.00;;;;;16.66;86.52;100773.78;5094938;27;47924;-71
2023/04/28 00:44:20;;;;;;;;;6.67;5.67;;;;;16.71;86.90;100787.47;5097458;27;45577;-72
2023/04/28 00:46:46;;;;;;;;;6.33;5.00;;;;;16.61;87.21;100765.38;5097638;27;46839;-75
2023/04/28 00:49:14;;;;;;;;;6.00;4.67;;;;;16.62;86.98;100761.69;5103830;27;45316;-74
2023/04/28 00:51:39;;;;;;;;;4.00;4.00;;;;;16.74;86.78;100770.16;5120048;27;45611;-75
2023/04/28 00:54:05;;;;;;;;;3.25;3.00;;;;;16.75;87.19;100771.00;5108344;27;45293;-73
2023/04/28 00:56:30;;;;;;;;;5.67;4.67;;;;;16.53;86.73;100733.25;5100772;27;45391;-76
2023/04/28 00:58:56;;;;;;;;;4.33;4.33;;;;;16.71;87.66;100786.63;5101539;27;45196;-75
2023/04/28 01:01:22;;;;;;;;;5.00;5.00;;;;;16.58;87.68;100760.38;5107630;27;45681;-75
2023/04/28 01:03:48;;;;;;;;;6.00;6.00;;;;;16.22;87.96;100711.94;5101555;27;45351;-76
2023/04/28 01:06:13;;;;;;;;;4.00;4.00;;;;;16.64;88.50;100769.56;5100870;27;45449;-74
2023/04/28 01:08:39;;;;;;;;;2.25;2.25;;;;;15.68;88.53;100618.22;5109593;27;45442;-72
2023/04/28 01:11:05;;;;;;;;;8.67;6.67;;;;;16.65;88.51;100782.81;5107778;27;45453;-72
2023/04/28 01:13:31;;;;;;;;;7.33;6.00;;;;;16.66;88.52;100789.00;5112628;27;45244;-75
2023/04/28 01:15:56;;;;;;;;;5.00;5.00;;;;;16.34;88.21;100736.47;5112120;27;45561;-73
2023/04/28 01:18:23;;;;;;;;;7.33;4.00;;;;;16.10;88.57;100703.47;5114912;27;45516;-74
2023/04/28 01:20:48;;;;;;;;;3.00;3.00;;;;;15.82;88.70;100646.91;5090235;27;47479;-73
2023/04/28 01:23:15;;;;;;;;;4.00;3.33;;;;;16.62;88.80;100771.59;5108436;27;45477;-76
2023/04/28 01:25:42;;;;;;;;;3.33;3.33;;;;;16.63;88.58;100768.75;5110478;27;45269;-73
2023/04/28 01:28:08;;;;;;;;;4.00;4.00;;;;;16.53;88.68;100775.38;5101964;27;45490;-73
2023/04/28 01:30:34;;;;;;;;;4.00;4.00;;;;;16.62;88.73;100769.75;5093211;27;47547;-74
2023/04/28 01:33:00;;;;;;;;;4.00;4.00;;;;;16.54;88.72;100769.81;5108797;27;45404;-74
2023/04/28 01:35:25;;;;;;;;;3.00;3.00;;;;;16.30;89.07;100727.94;5101076;27;45527;-74
2023/04/28 01:37:51;;;;;;;;;6.00;5.00;;;;;16.57;89.02;100766.75;5099123;27;45524;-77
2023/04/28 01:40:16;;;;;;;;;4.33;4.33;;;;;16.36;89.25;100739.78;5116795;27;45833;-75
2023/04/28 01:42:41;;;;;;;;;2.33;2.33;;;;;16.62;88.67;100779.66;5096511;27;46104;-74
2023/04/28 01:45:07;;;;;;;;;4.33;4.33;;;;;16.65;88.97;100777.44;5103153;27;45252;-75
2023/04/28 01:47:33;;;;;;;;;3.00;3.00;;;;;16.59;88.99;100775.47;5109228;27;45391;-75
2023/04/28 01:49:58;;;;;;;;;3.00;3.00;;;;;16.55;89.25;100774.16;5098261;27;48389;-75
2023/04/28 01:52:23;;;;;;;;;4.33;4.33;;;;;16.51;89.02;100758.63;5103105;27;50862;-71
2023/04/28 01:54:49;;;;;;;;;3.00;3.00;;;;;16.51;89.07;100748.72;5113819;27;45348;-73
2023/04/28 01:57:15;;;;;;;;;5.00;3.33;;;;;15.93;89.12;100667.09;5100746;27;45270;-72
2023/04/28 01:59:41;;;;;;;;;3.00;3.00;;;;;16.62;89.03;100779.66;5107320;27;46435;-74
2023/04/28 02:02:06;;;;;;;;;6.00;3.33;;;;;16.57;89.22;100769.44;5115974;27;45355;-74
2023/04/28 02:04:32;;;;;;;;;4.00;4.00;;;;;16.61;89.30;100776.13;5109299;27;45987;-74
2023/04/28 02:06:57;;;;;;;;;3.00;3.00;;;;;16.62;89.36;100776.97;5100235;27;45490;-76
2023/04/28 02:09:23;;;;;;;;;3.00;3.00;;;;;16.17;89.40;100705.44;5101528;27;46370;-73
2023/04/28 02:11:48;;;;;;;;;3.25;3.25;;;;;15.92;89.54;100668.09;5109257;27;45253;-76
2023/04/28 02:14:13;;;;;;;;;4.00;4.00;;;;;16.57;89.61;100773.97;5120328;27;45391;-73
2023/04/28 02:16:39;;;;;;;;;2.00;2.00;;;;;15.94;89.50;100667.91;5091193;27;45456;-72
2023/04/28 02:19:04;;;;;;;;;5.00;4.00;;;;;16.07;89.39;100695.81;5099999;27;46293;-73
2023/04/28 02:21:30;;;;;;;;;2.50;2.50;;;;;16.58;89.35;100781.84;5100175;27;45435;-73
2023/04/28 02:23:56;;;;;;;;;3.00;3.00;;;;;16.58;89.77;100775.66;5108253;27;45358;-74
2023/04/28 02:26:21;;;;;;;;;4.33;3.67;;;;;16.25;89.46;100716.09;5099812;27;45416;-72
2023/04/28 02:28:48;;;;;;;;;3.00;3.00;;;;;16.57;90.00;100782.03;5099315;27;46418;-74
2023/04/28 02:31:13;;;;;;;;;5.00;3.25;;;;;16.38;90.14;100743.13;5099396;27;45549;-75
2023/04/28 02:33:38;;;;;;;;;4.00;3.00;;;;;16.54;89.81;100780.56;5093892;27;45329;-72
2023/04/28 02:36:05;;;;;;;;;5.67;4.33;;;;;16.55;89.84;100787.59;5097210;27;45622;-72
2023/04/28 02:38:30;;;;;;;;;4.00;3.50;;;;;16.41;90.12;100774.97;5107549;27;46247;-72
2023/04/28 02:41:04;;;;;;;;;4.75;3.25;;;;;16.50;90.20;100783.78;5108865;27;45301;-76
2023/04/28 02:43:30;;;;;;;;;3.00;3.00;;;;;16.42;90.29;100779.34;5081760;27;45574;-74
2023/04/28 02:45:56;;;;;;;;;2.00;2.00;;;;;16.49;90.13;100793.69;5095306;27;45566;-73
2023/04/28 02:48:22;;;;;;;;;2.75;2.75;;;;;16.08;90.28;100721.59;5107286;27;45235;-73
2023/04/28 02:50:47;;;;;;;;;2.00;1.75;;;;;16.39;90.50;100772.47;5098468;27;45262;-74
2023/04/28 02:53:13;;;;;;;;;2.00;2.00;;;;;16.49;90.30;100782.94;5098849;27;45315;-74
2023/04/28 02:55:38;;;;;;;;;2.75;2.00;;;;;16.15;89.71;100715.50;5111553;27;45337;-73
2023/04/28 02:58:03;;;;;;;;;3.75;3.75;;;;;16.19;89.88;100723.00;5110387;27;46733;-74
2023/04/28 03:00:29;;;;;;;;;3.00;2.00;;;;;16.52;89.89;100782.59;5108270;27;45204;-72
2023/04/28 03:02:54;;;;;;;;;2.00;2.00;;;;;16.51;90.09;100770.19;5113391;27;45174;-74
2023/04/28 03:05:20;;;;;;;;;2.67;2.67;;;;;16.37;89.98;100736.09;5083228;27;45509;-74
2023/04/28 03:07:45;;;;;;;;;2.00;2.00;;;;;15.93;89.80;100669.75;5092788;27;48617;-73
2023/04/28 03:10:10;;;;;;;;;1.00;1.00;;;;;16.23;89.59;100716.28;5117735;27;59470;-76
2023/04/28 03:12:36;;;;;;;;;1.50;1.50;;;;;16.53;89.42;100760.09;5108044;27;45297;-72
2023/04/28 03:15:01;;;;;;;;;1.00;1.00;;;;;16.58;89.02;100768.44;5099067;27;45456;-71
2023/04/28 03:17:26;;;;;;;;;1.75;1.75;;;;;16.58;89.19;100765.75;5106329;27;46484;-77
2023/04/28 03:19:52;;;;;;;;;1.00;1.00;;;;;16.63;89.01;100768.75;5110379;27;45311;-73
2023/04/28 03:22:17;;;;;;;;;1.67;1.00;;;;;16.55;88.85;100766.13;5119489;27;45330;-74
2023/04/28 03:24:42;;;;;;;;;0.50;0.50;;;;;16.44;88.62;100747.78;5100584;27;45546;-73
2023/04/28 03:27:08;;;;;;;;;1.00;1.00;;;;;16.51;89.36;100754.09;5098211;27;55407;-75
2023/04/28 03:29:33;;;;;;;;;1.25;1.00;;;;;16.51;88.57;100742.50;5106520;27;54606;-74
2023/04/28 03:31:58;;;;;;;;;2.75;1.00;;;;;16.65;88.90;100761.34;5096467;27;45254;-73
2023/04/28 03:34:24;;;;;;;;;0.67;0.67;;;;;15.90;88.45;100646.00;5094760;27;45514;-74
2023/04/28 03:36:49;;;;;;;;;0.50;0.50;;;;;16.62;88.53;100777.81;5098207;27;45844;-74
2023/04/28 03:39:14;;;;;;;;;1.00;1.00;;;;;16.31;88.42;100728.78;5118514;27;45347;-74
2023/04/28 03:41:40;;;;;;;;;1.00;1.00;;;;;16.42;88.08;100745.28;5091265;27;45474;-72
2023/04/28 03:44:05;;;;;;;;;1.50;0.50;;;;;16.10;88.25;100682.03;5119190;27;45259;-76
2023/04/28 03:46:31;;;;;;;;;1.00;1.00;;;;;16.60;88.00;100757.50;5094875;27;48009;-75
2023/04/28 03:48:56;;;;;;;;;0.50;0.50;;;;;16.41;87.88;100718.59;5097735;27;58898;-74
2023/04/28 03:51:21;;;;;;;;;0.00;0.00;;;;;15.90;88.11;100637.97;5100925;27;45450;-75
2023/04/28 03:53:47;;;;;;;;;1.00;1.00;;;;;16.47;88.08;100739.38;5103769;27;45338;-73
2023/04/28 03:56:12;;;;;;;;;0.00;0.00;;;;;16.35;87.43;100735.44;5095838;27;46846;-73
2023/04/28 03:58:37;;;;;;;;;1.00;1.00;;;;;16.62;87.66;100787.72;5101703;27;45416;-74
2023/04/28 04:01:04;;;;;;;;;0.00;0.00;;;;;15.00;87.15;100514.56;5117652;27;57361;-77
2023/04/28 04:03:29;;;;;;;;;0.00;0.00;;;;;16.59;86.85;100762.03;5091209;27;45439;-74
2023/04/28 04:05:55;;;;;;;;;0.50;0.50;;;;;16.46;87.16;100751.13;5112839;27;45705;-72
2023/04/28 04:08:20;;;;;;;;;1.50;1.00;;;;;16.40;87.41;100733.88;5107087;27;45411;-74
2023/04/28 04:10:48;;;;;;;;;0.00;0.00;;;;;16.05;86.88;100673.69;5118931;27;45640;-73
2023/04/28 04:13:14;;;;;;;;;0.00;0.00;;;;;16.65;87.21;100781.97;5106890;27;45485;-72
2023/04/28 04:15:39;;;;;;;;;2.00;2.00;;;;;16.49;87.02;100748.06;5113655;27;45444;-73
2023/04/28 04:18:04;;;;;;;;;1.00;0.00;;;;;15.80;87.44;100661.50;5111840;27;45343;-75
2023/04/28 04:20:30;;;;;;;;;1.00;1.00;;;;;16.52;87.33;100752.22;5100697;27;45514;-76
2023/04/28 04:22:55;;;;;;;;;0.00;0.00;;;;;16.23;87.18;100723.50;5106655;27;45276;-75
2023/04/28 04:25:20;;;;;;;;;0.00;0.00;;;;;16.43;87.32;100757.69;5111217;27;58040;-73
2023/04/28 04:27:46;;;;;;;;;0.00;0.00;;;;;16.31;87.14;100740.34;5115873;27;45524;-72
2023/04/28 04:30:11;;;;;;;;;1.00;0.00;;;;;16.54;86.90;100780.56;5103930;27;45301;-74
2023/04/28 04:32:36;;;;;;;;;0.00;0.00;;;;;16.33;86.58;100737.47;5097516;27;45422;-75
2023/04/28 04:35:02;;;;;;;;;0.25;0.00;;;;;16.38;86.56;100748.50;5105319;27;45403;-75
2023/04/28 04:37:27;;;;;;;;;0.75;0.75;;;;;16.60;86.65;100792.41;5097197;27;45232;-73
2023/04/28 04:39:53;;;;;;;;;0.25;0.25;;;;;16.48;86.91;100761.66;5098972;27;45505;-73
2023/04/28 04:42:18;;;;;;;;;0.75;0.75;;;;;16.60;86.75;100779.81;5119233;27;45601;-72
2023/04/28 04:44:43;;;;;;;;;1.00;1.00;;;;;15.90;86.39;100653.22;5108401;27;45987;-74
2023/04/28 04:47:09;;;;;;;;;1.00;1.00;;;;;16.57;86.65;100774.81;5100449;27;45235;-72
2023/04/28 04:49:34;;;;;;;;;1.33;1.33;;;;;16.46;86.42;100764.53;5117263;27;50797;-72
2023/04/28 04:52:00;;;;;;;;;0.00;0.00;;;;;16.09;86.30;100701.81;5116568;27;45468;-74
2023/04/28 04:54:25;;;;;;;;;0.00;0.00;;;;;16.52;86.49;100771.84;5084544;27;47187;-74
2023/04/28 04:56:51;;;;;;;;;0.00;0.00;;;;;16.67;86.26;100807.66;5113841;27;45403;-75
2023/04/28 04:59:17;;;;;;;;;1.25;1.25;;;;;16.63;86.03;100784.84;5104784;27;45391;-75
2023/04/28 05:01:42;;;;;;;;;0.50;0.00;;;;;16.68;86.24;100801.25;5097183;27;45222;-73
2023/04/28 05:04:07;;;;;;;;;0.25;0.25;;;;;16.01;86.36;100687.63;5086979;27;46763;-72
2023/04/28 05:06:33;;;;;;;;;0.50;0.50;;;;;16.62;86.06;100783.19;5096777;27;45299;-73
2023/04/28 05:08:58;;;;;;;;;0.00;0.00;;;;;16.44;85.90;100753.16;5106332;27;45358;-75
2023/04/28 05:11:23;;;;;;;;;0.50;0.50;;;;;16.71;85.76;100794.69;5105840;27;45549;-73
2023/04/28 05:13:49;;;;;;;;;0.00;0.00;;;;;16.53;86.15;100775.38;5111858;27;53447;-73
2023/04/28 05:16:14;;;;;;;;;0.25;0.25;;;;;16.70;85.85;100817.19;5095862;27;45403;-75
2023/04/28 05:18:40;;;;;;;;;1.00;1.00;;;;;16.70;85.83;100809.13;5097082;27;45288;-74
2023/04/28 05:21:05;;;;;;;;;0.00;0.00;;;;;16.70;85.58;100818.03;5097215;27;45305;-73
2023/04/28 05:23:31;;;;;;;;;0.25;0.25;;;;;16.37;85.87;100763.75;5097047;27;46236;-73
2023/04/28 05:25:56;;;;;;;;;2.00;1.00;;;;;16.64;85.81;100813.34;5096530;27;45312;-77
2023/04/28 05:28:22;;;;;;;;;1.75;1.00;;;;;16.64;85.78;100820.56;5096845;27;45174;-74
2023/04/28 05:30:47;;;;;;;;;1.00;1.00;;;;;16.62;86.40;100814.56;5105532;27;45329;-77
2023/04/28 05:33:12;;;;;;;;;6.00;6.00;;;;;16.34;85.74;100757.94;5098258;27;45704;-76
2023/04/28 05:35:38;;;;;;;;;0.67;0.67;;;;;16.66;86.12;100811.34;5096720;27;45217;-73
2023/04/28 05:38:03;;;;;;;;;0.50;0.00;;;;;16.69;85.78;100819.03;5116169;27;45301;-73
2023/04/28 05:40:29;;;;;;;;;1.75;0.00;;;;;16.37;85.74;100760.25;5091836;27;45424;-74
2023/04/28 05:42:54;;;;;;;;;1.00;1.00;;;;;16.69;86.07;100819.03;5082210;27;47807;-73
2023/04/28 05:45:20;;;;;;;;;2.33;2.33;;;;;16.49;85.81;100772.22;5101336;27;45355;-75
2023/04/28 05:47:45;;;;;;;;;0.75;0.75;;;;;15.99;86.02;100697.69;5089034;27;45433;-73
2023/04/28 05:50:11;;;;;;;;;2.00;1.00;;;;;16.65;86.14;100804.28;5108827;27;45283;-77
2023/04/28 05:52:36;;;;;;;;;1.00;1.00;;;;;16.69;86.00;100807.47;5100592;27;46308;-75
2023/04/28 05:55:02;;;;;;;;;3.00;2.00;;;;;16.63;85.76;100806.31;5099768;27;45236;-74
2023/04/28 05:57:27;;;;;;;;;2.50;1.75;;;;;16.03;85.67;100696.34;5089700;27;45419;-74
2023/04/28 05:59:53;;;;;;;;;1.00;1.00;;;;;16.42;85.59;100761.38;5100303;27;45360;-75
2023/04/28 06:02:18;;;;;;;;;1.00;1.00;;;;;16.78;85.46;100829.69;5108443;27;45597;-76
2023/04/28 06:04:43;;;;;;;;;1.75;1.75;;;;;16.80;85.36;100815.06;5108460;27;45329;-76
2023/04/28 06:07:09;;;;;;;;;1.00;1.00;;;;;16.77;85.06;100814.59;5100488;27;45298;-73
2023/04/28 06:09:35;;;;;;;;;1.00;1.00;;;;;16.81;85.38;100811.34;5121761;27;45325;-73
2023/04/28 06:12:02;;;;;;;;;1.50;1.50;;;;;16.87;85.12;100826.75;5108685;27;45782;-72
2023/04/28 06:14:27;;;;;;;;;0.00;0.00;;;;;16.86;84.89;100819.72;5112631;27;45205;-75
2023/04/28 06:16:53;;;;;;;;;2.75;2.00;;;;;16.21;84.88;100718.28;5101879;27;45455;-74
2023/04/28 06:19:18;;;;;;;;;2.50;1.00;;;;;16.81;84.93;100818.56;5111433;27;45526;-74
2023/04/28 06:21:45;;;;;;;;;4.33;4.33;;;;;16.82;85.13;100822.94;5117771;27;45766;-73
2023/04/28 06:24:10;;;;;;;;;1.33;1.33;;;;;16.61;85.08;100786.84;5099607;27;45396;-73
2023/04/28 06:26:36;;;;;;;;;1.00;1.00;;;;;16.78;85.31;100808.22;5099934;27;45568;-74
2023/04/28 06:29:02;;;;;;;;;1.00;1.00;;;;;16.85;84.90;100836.00;5103569;27;45483;-76
2023/04/28 06:31:27;;;;;;;;;1.00;1.00;;;;;16.73;84.91;100811.44;5093346;27;46674;-74
2023/04/28 06:33:52;;;;;;;;;2.67;2.67;;;;;15.04;84.53;100542.66;5115670;27;45366;-74
2023/04/28 06:36:18;;;;;;;;;0.50;0.50;;;;;16.60;84.60;100800.44;5099634;27;45300;-74
2023/04/28 06:38:44;;;;;;;;;6.00;5.00;;;;;16.91;84.31;100830.75;5100661;27;45248;-72
2023/04/28 06:41:10;;;;;;;;;1.75;1.75;;;;;16.93;83.96;100831.38;5112099;27;46346;-75
2023/04/28 06:43:35;;;;;;;;;1.50;1.50;;;;;16.93;83.90;100830.56;5093296;27;45355;-74
2023/04/28 06:46:01;;;;;;;;;1.00;1.00;;;;;16.75;83.92;100789.78;5115883;27;45240;-75
2023/04/28 06:48:26;;;;;;;;;1.50;1.50;;;;;16.78;83.67;100794.78;5100934;27;45200;-74
2023/04/28 06:50:52;;;;;;;;;1.75;1.00;;;;;16.91;83.48;100808.41;5103648;27;45879;-74
2023/04/28 06:53:17;;;;;;;;;2.75;2.50;;;;;16.37;82.93;100703.91;5080757;27;45644;-73
2023/04/28 06:55:43;;;;;;;;;4.50;2.75;;;;;15.49;82.66;100571.28;5116077;27;45456;-75
2023/04/28 06:58:08;;;;;;;;;1.00;1.00;;;;;17.20;82.32;100839.81;5108177;27;45565;-75
2023/04/28 07:00:34;;;;;;;;;4.00;2.00;;;;;16.96;82.50;100806.00;5099296;27;45930;-75
2023/04/28 07:02:59;;;;;;;;;1.75;1.75;;;;;17.07;82.33;100827.06;5099970;27;45262;-76
2023/04/28 07:05:25;;;;;;;;;3.00;2.00;;;;;16.52;81.92;100720.03;5100439;27;45365;-76
2023/04/28 07:07:51;;;;;;;;;1.25;1.25;;;;;17.36;82.16;100849.56;5104094;27;45532;-77
2023/04/28 07:10:16;;;;;;;;;2.00;2.00;;;;;17.30;81.46;100829.66;5111163;27;45497;-77
2023/04/28 07:12:42;;;;;;;;;1.75;1.75;;;;;17.14;81.17;100787.69;5085995;27;45410;-75
2023/04/28 07:15:07;;;;;;;;;2.00;2.00;;;;;16.81;80.89;100721.91;5099709;27;45450;-74
2023/04/28 07:17:33;;;;;;;;;1.67;1.00;;;;;17.36;80.27;100809.25;5098945;27;45508;-76
2023/04/28 07:19:58;;;;;;;;;2.33;2.00;;;;;17.50;80.04;100822.69;5115793;27;45469;-78
2023/04/28 07:22:23;;;;;;;;;5.67;3.00;;;;;17.57;80.26;100825.44;5097303;27;45588;-74
2023/04/28 07:24:49;;;;;;;;;2.25;2.25;;;;;17.52;79.78;100817.13;5088472;27;45426;-74
2023/04/28 07:27:14;;;;;;;;;1.50;1.50;;;;;17.70;79.30;100857.94;5088724;27;45302;-75
2023/04/28 07:29:40;;;;;;;;;2.00;2.00;;;;;17.61;79.39;100834.81;5089050;27;45802;-76
2023/04/28 07:32:07;;;;;;;;;2.00;2.00;;;;;17.17;79.01;100751.53;5107676;27;45241;-75
2023/04/28 07:34:34;;;;;;;;;2.75;2.75;;;;;17.87;79.33;100863.94;5115847;27;45462;-74
2023/04/28 07:37:01;;;;;;;;;10.00;7.25;;;;;17.93;79.15;100864.00;5081974;27;45324;-75
2023/04/28 07:39:27;;;;;;;;;5.00;4.00;;;;;17.93;79.07;100858.63;5100449;27;46825;-75
2023/04/28 07:41:52;;;;;;;;;3.75;3.50;;;;;17.19;78.37;100728.84;5104550;27;45272;-74
2023/04/28 07:44:18;;;;;;;;;2.00;2.00;;;;;17.92;78.41;100835.44;5089067;27;45296;-76
2023/04/28 07:46:43;;;;;;;;;3.00;3.00;;;;;17.88;77.46;100830.63;5111609;27;45295;-75
2023/04/28 07:49:09;;;;;;;;;6.67;4.00;;;;;18.17;77.87;100870.06;5111323;27;45630;-75
2023/04/28 07:51:34;;;;;;;;;2.00;2.00;;;;;18.19;77.61;100849.16;5096741;27;45276;-76
2023/04/28 07:54:00;;;;;;;;;1.75;1.75;;;;;16.96;76.79;100628.75;5107193;27;45411;-76
2023/04/28 07:56:25;;;;;;;;;1.75;1.75;;;;;18.13;75.66;100799.66;5100083;27;45241;-71
2023/04/28 07:58:51;;;;;;;;;2.00;2.00;;;;;18.80;74.95;100857.63;5094203;27;46311;-75
2023/04/28 08:01:17;;;;;;;;;1.75;0.75;;;;;18.89;73.89;100852.94;5098848;27;45585;-75
2023/04/28 08:03:42;;;;;;;;;1.00;1.00;;;;;18.87;73.96;100828.91;5122211;27;45285;-77
2023/04/28 08:06:08;;;;;;;;;3.00;3.00;;;;;18.63;73.36;100764.72;5094263;27;45392;-78
2023/04/28 08:08:33;;;;;;;;;2.25;2.25;;;;;18.62;72.68;100733.38;5090349;27;46993;-75
2023/04/28 08:10:59;;;;;;;;;2.00;2.00;;;;;19.55;71.16;100865.00;5117230;27;45307;-75
2023/04/28 08:13:24;;;;;;;;;2.00;1.00;;;;;19.42;70.44;100810.97;5108691;27;45173;-75
2023/04/28 08:15:50;;;;;;;;;1.75;1.00;;;;;19.85;70.45;100868.28;5107419;27;45418;-75
2023/04/28 08:18:15;;;;;;;;;1.00;1.00;;;;;19.67;69.11;100843.72;5106642;27;46400;-74
2023/04/28 08:20:41;;;;;;;;;1.25;1.25;;;;;19.73;69.10;100859.91;5098133;27;45418;-74
2023/04/28 08:23:07;;;;;;;;;1.75;1.75;;;;;19.97;68.85;100874.75;5099168;27;45449;-74
2023/04/28 08:25:33;;;;;;;;;1.00;0.50;;;;;20.18;68.15;100871.06;5098371;27;45656;-77
2023/04/28 08:28:07;;;;;;;;;2.00;2.00;;;;;19.69;67.65;100793.09;5118337;27;45723;-76
2023/04/28 08:30:33;;;;;;;;;2.50;2.25;;;;;20.20;67.82;100874.38;5082639;27;45523;-75
2023/04/28 08:32:59;;;;;;;;;1.25;1.25;;;;;19.89;67.12;100830.94;5101234;27;45496;-75
2023/04/28 08:35:25;;;;;;;;;2.75;2.75;;;;;19.96;67.36;100843.41;5103022;27;45583;-75
2023/04/28 08:37:51;;;;;;;;;1.67;1.67;;;;;19.61;67.31;100791.38;5080021;27;47947;-75
2023/04/28 08:40:17;;;;;;;;;1.25;1.25;;;;;19.92;67.75;100860.19;5093150;27;45352;-73
2023/04/28 08:42:44;;;;;;;;;5.67;5.67;;;;;20.00;67.55;100871.63;5108822;27;45271;-79
2023/04/28 08:45:13;;;;;;;;;2.00;1.00;;;;;19.86;67.58;100858.31;5100195;27;45555;-77
2023/04/28 08:47:44;;;;;;;;;1.50;0.50;;;;;19.81;67.34;100863.47;5101691;27;46253;-75
2023/04/28 08:50:14;;;;;;;;;1.50;0.75;;;;;19.76;67.61;100866.78;5097566;27;45374;-75
2023/04/28 08:52:41;;;;;;;;;1.00;1.00;;;;;19.73;67.84;100861.78;5098577;27;45526;-74
2023/04/28 08:55:09;;;;;;;;;1.00;1.00;;;;;19.66;68.21;100859.06;5091686;27;45575;-76
2023/04/28 08:57:41;;;;;;;;;4.00;2.25;;;;;19.77;67.50;100883.78;5093040;27;47628;-76
2023/04/28 09:00:07;;;;;;;;;6.00;5.00;;;;;19.37;67.67;100818.84;5102171;27;45481;-76
2023/04/28 09:02:33;;;;;;;;;2.00;2.00;;;;;19.72;67.13;100887.94;5107288;27;45224;-78
2023/04/28 09:04:58;;;;;;;;;0.00;0.00;;;;;19.82;67.07;100890.25;5116315;27;45422;-77
2023/04/28 09:07:24;;;;;;;;;2.00;0.50;;;;;19.79;67.19;100879.03;5118166;27;46135;-76
2023/04/28 09:09:49;;;;;;;;;4.00;1.25;;;;;19.85;66.86;100891.72;5091196;27;45543;-75
2023/04/28 09:12:15;;;;;;;;;3.00;3.00;;;;;19.86;67.20;100894.22;5102677;27;45371;-76
2023/04/28 09:14:40;;;;;;;;;3.00;3.00;;;;;18.69;66.49;100700.13;5104180;27;45345;-74
2023/04/28 09:17:11;;;;;;;;;4.25;4.25;;;;;19.60;66.44;100856.31;5117810;27;46002;-75
2023/04/28 09:19:38;;;;;;;;;3.00;1.25;;;;;19.24;66.34;100781.88;5101133;27;45577;-75
2023/04/28 09:22:05;;;;;;;;;1.00;1.00;;;;;19.88;66.13;100888.63;5101671;27;45238;-77
2023/04/28 09:24:42;;;;;;;;;1.00;1.00;;;;;19.82;66.07;100881.31;5117111;27;45547;-77
2023/04/28 09:27:10;;;;;;;;;1.50;1.50;;;;;19.54;66.10;100852.56;5113029;27;46966;-74
2023/04/28 09:29:37;;;;;;;;;2.00;1.00;;;;;19.80;66.52;100899.56;5107910;27;45634;-75
2023/04/28 09:32:20;;;;;;;;;2.50;2.50;;;;;19.43;66.74;100845.03;5121918;27;45227;-76
2023/04/28 09:34:55;;;;;;;;;4.00;1.00;;;;;19.67;66.78;100901.19;5115795;27;45460;-75
2023/04/28 09:37:26;;;;;;;;;4.00;4.00;;;;;19.37;66.33;100846.63;5111935;27;46176;-76
2023/04/28 09:39:53;;;;;;;;;1.00;1.00;;;;;19.68;66.59;100888.53;5100567;27;45531;-76
2023/04/28 09:42:38;;;;;;;;;1.00;1.00;;;;;19.77;66.54;100895.41;5090821;27;45446;-75
2023/04/28 09:45:06;;;;;;;;;1.75;1.75;;;;;19.78;65.62;100901.63;5100930;27;45364;-74
2023/04/28 09:47:34;;;;;;;;;2.00;2.00;;;;;19.81;65.58;100901.22;5120376;27;45646;-74
2023/04/28 09:50:01;;;;;;;;;5.00;3.33;;;;;19.90;65.39;100902.75;5093712;27;45382;-75
2023/04/28 09:52:26;;;;;;;;;1.75;1.75;;;;;19.65;65.00;100860.09;5101722;27;45375;-76
2023/04/28 09:54:55;;;;;;;;;5.00;4.00;;;;;19.04;65.11;100743.22;5096240;27;45601;-76
2023/04/28 09:57:21;;;;;;;;;8.00;8.00;;;;;19.58;65.03;100817.94;5098745;27;45509;-75
2023/04/28 09:59:49;;;;;;;;;3.00;2.00;;;;;20.06;64.43;100888.91;5094531;27;45620;-73
2023/04/28 10:02:16;;;;;;;;;2.00;2.00;;;;;19.90;64.60;100852.31;5101864;27;45459;-76
2023/04/28 10:04:46;;;;;;;;;4.25;3.00;;;;;20.36;64.00;100906.41;5111277;27;45409;-78
2023/04/28 10:07:15;;;;;;;;;2.00;2.00;;;;;19.89;63.61;100806.63;5085456;27;48262;-79
2023/04/28 10:09:49;;;;;;;;;3.00;3.00;;;;;20.53;63.40;100889.88;5110701;27;45608;-74
2023/04/28 10:12:15;;;;;;;;;2.00;1.00;;;;;20.04;62.67;100804.63;5114713;27;45265;-75
2023/04/28 10:14:41;;;;;;;;;1.00;1.00;;;;;20.78;62.01;100915.25;5100752;27;45400;-75
2023/04/28 10:17:07;;;;;;;;;3.75;2.25;;;;;20.62;61.98;100878.69;5081470;27;45320;-76
2023/04/28 10:19:33;;;;;;;;;3.25;1.75;;;;;20.97;61.89;100919.00;5108244;27;45812;-75
2023/04/28 10:22:37;;;;;;;;;3.00;1.25;;;;;21.06;60.76;100908.81;5107655;27;45356;-76
2023/04/28 10:25:11;;;;;;;;;2.75;2.75;;;;;21.12;60.18;100916.09;5096805;27;45329;-74
2023/04/28 10:27:45;;;;;;;;;2.00;2.00;;;;;20.89;58.45;100895.72;5100047;27;45771;-79
2023/04/28 10:30:18;;;;;;;;;1.00;1.00;;;;;21.10;58.81;100927.13;5105204;27;45384;-76
2023/04/28 10:32:47;;;;;;;;;2.00;2.00;;;;;20.39;58.68;100796.31;5109727;27;45211;-75
2023/04/28 10:35:28;;;;;;;;;1.00;1.00;;;;;21.08;58.31;100915.69;5100263;27;45328;-74
2023/04/28 10:38:04;;;;;;;;;0.50;0.50;;;;;20.77;57.54;100837.09;5099447;27;45777;-78
2023/04/28 10:40:30;;;;;;;;;2.00;2.00;;;;;21.21;57.96;100912.13;5099229;27;45641;-76
2023/04/28 10:42:56;;;;;;;;;1.50;0.00;;;;;21.23;56.95;100924.41;5091904;27;45408;-73
2023/04/28 10:45:55;;;;;;;;;1.00;1.00;;;;;21.32;57.86;100898.00;5120422;27;45497;-77
2023/04/28 10:48:32;;;;;;;;;0.50;0.50;;;;;21.45;57.58;100910.69;5091914;27;48170;-75
2023/04/28 10:51:08;;;;;;;;;0.75;0.75;;;;;21.62;57.35;100911.03;5110223;27;45443;-76
2023/04/28 10:53:45;;;;;;;;;0.75;0.25;;;;;21.59;56.48;100911.47;5111567;27;45418;-75
2023/04/28 10:56:20;;;;;;;;;2.00;2.00;;;;;21.70;56.36;100913.53;5108155;27;45519;-75
2023/04/28 10:58:48;;;;;;;;;2.00;1.00;;;;;21.04;55.96;100781.16;5099853;27;45824;-79
2023/04/28 11:01:25;;;;;;;;;3.75;3.00;;;;;21.93;55.45;100911.16;5103360;27;45363;-80
2023/04/28 11:04:16;;;;;;;;;1.25;1.00;;;;;21.76;55.49;100874.78;5100418;27;45393;-75
2023/04/28 11:06:46;;;;;;;;;5.25;4.00;;;;;21.97;54.99;100919.66;5111689;27;45490;-77
2023/04/28 11:09:11;;;;;;;;;3.00;3.00;;;;;21.99;55.44;100914.88;5107622;27;45853;-76
2023/04/28 11:11:38;;;;;;;;;1.50;1.50;;;;;21.81;55.04;100861.44;5105639;27;45439;-75
2023/04/28 11:14:16;;;;;;;;;2.50;2.00;;;;;22.13;55.10;100903.81;5110901;27;45364;-73
2023/04/28 11:17:04;;;;;;;;;0.75;0.75;;;;;22.04;56.06;100894.28;5114138;27;45475;-75
2023/04/28 11:19:35;;;;;;;;;1.00;1.00;;;;;21.87;55.50;100860.59;5099935;27;45771;-75
2023/04/28 11:22:10;;;;;;;;;3.50;3.50;;;;;21.35;54.97;100770.47;5098889;27;45268;-77